Dessel, Belgium
Current Conditions -  °F | °C
As of 3:55 PM on Saturday 20 Dec 2014 (Local Time) from EBBL Reporting Station
Broken Clouds Broken Clouds  
Wind Chill: 40°   Ceiling: 4300
Heat Index: 46°   Visibility: 6mi
Dew Point: 37°   Wind: 15mph
Humidity: 71%   Direction: 270°W
Pressure: 30.15"   Gusts: NA
Location:  51.24°N, 5.11°E
Report Text: EBBL 201455Z 27013KT 9999 FEW028 BKN043 08/03 Q1021 BLU
Loading
Personal Weather Stations






























Interactive Weather Map New forecast layout! Learn more

10-Day Weather Forecast

Advertisements
Track Severe Weather on mobile